sensor_id;sensor_type;location;lat;lon;timestamp;P1;durP1;ratioP1;P2;durP2;ratioP2
56824;SDS011;42705;50.326;18.772;2023-11-18T00:04:28;11.40;;;6.60;;
56824;SDS011;42705;50.326;18.772;2023-11-18T00:09:50;11.40;;;6.90;;
56824;SDS011;42705;50.326;18.772;2023-11-18T00:15:12;10.50;;;7.60;;
56824;SDS011;42705;50.326;18.772;2023-11-18T00:20:34;7.40;;;5.90;;
56824;SDS011;42705;50.326;18.772;2023-11-18T00:25:57;8.30;;;5.60;;
56824;SDS011;42705;50.326;18.772;2023-11-18T00:31:19;8.80;;;6.50;;
56824;SDS011;42705;50.326;18.772;2023-11-18T00:36:41;8.60;;;6.50;;
56824;SDS011;42705;50.326;18.772;2023-11-18T00:42:03;8.30;;;6.00;;
56824;SDS011;42705;50.326;18.772;2023-11-18T00:47:25;9.10;;;6.10;;
56824;SDS011;42705;50.326;18.772;2023-11-18T00:52:48;7.40;;;6.10;;
56824;SDS011;42705;50.326;18.772;2023-11-18T01:03:33;7.20;;;5.60;;
56824;SDS011;42705;50.326;18.772;2023-11-18T01:08:55;9.80;;;6.70;;
56824;SDS011;42705;50.326;18.772;2023-11-18T01:14:17;7.50;;;5.50;;
56824;SDS011;42705;50.326;18.772;2023-11-18T01:25:02;7.30;;;5.30;;
56824;SDS011;42705;50.326;18.772;2023-11-18T01:30:25;8.90;;;5.90;;
56824;SDS011;42705;50.326;18.772;2023-11-18T01:35:48;4.40;;;3.90;;
56824;SDS011;42705;50.326;18.772;2023-11-18T01:41:10;3.90;;;3.40;;
56824;SDS011;42705;50.326;18.772;2023-11-18T01:46:34;5.10;;;3.70;;
56824;SDS011;42705;50.326;18.772;2023-11-18T01:51:57;4.80;;;4.20;;
56824;SDS011;42705;50.326;18.772;2023-11-18T01:57:23;4.50;;;4.10;;
56824;SDS011;42705;50.326;18.772;2023-11-18T02:02:46;4.40;;;3.60;;
56824;SDS011;42705;50.326;18.772;2023-11-18T02:08:08;4.70;;;4.20;;
56824;SDS011;42705;50.326;18.772;2023-11-18T02:13:31;6.80;;;5.40;;
56824;SDS011;42705;50.326;18.772;2023-11-18T02:18:58;7.20;;;4.30;;
56824;SDS011;42705;50.326;18.772;2023-11-18T02:24:28;6.00;;;4.50;;
56824;SDS011;42705;50.326;18.772;2023-11-18T02:29:54;6.00;;;4.50;;
56824;SDS011;42705;50.326;18.772;2023-11-18T02:35:23;6.50;;;4.70;;
56824;SDS011;42705;50.326;18.772;2023-11-18T02:40:51;6.20;;;4.40;;
56824;SDS011;42705;50.326;18.772;2023-11-18T02:46:14;5.60;;;4.00;;
56824;SDS011;42705;50.326;18.772;2023-11-18T02:51:38;5.30;;;4.00;;
56824;SDS011;42705;50.326;18.772;2023-11-18T02:57:00;6.40;;;4.80;;
56824;SDS011;42705;50.326;18.772;2023-11-18T03:02:23;4.80;;;4.00;;
56824;SDS011;42705;50.326;18.772;2023-11-18T03:07:46;4.50;;;3.90;;
56824;SDS011;42705;50.326;18.772;2023-11-18T03:13:11;8.20;;;3.70;;
56824;SDS011;42705;50.326;18.772;2023-11-18T03:18:37;4.30;;;3.20;;
56824;SDS011;42705;50.326;18.772;2023-11-18T03:24:01;4.50;;;2.60;;
56824;SDS011;42705;50.326;18.772;2023-11-18T03:29:23;2.60;;;1.80;;
56824;SDS011;42705;50.326;18.772;2023-11-18T03:34:45;1.70;;;1.60;;
56824;SDS011;42705;50.326;18.772;2023-11-18T03:40:07;2.50;;;1.90;;
56824;SDS011;42705;50.326;18.772;2023-11-18T03:45:30;2.30;;;1.70;;
56824;SDS011;42705;50.326;18.772;2023-11-18T03:50:52;2.00;;;1.70;;
56824;SDS011;42705;50.326;18.772;2023-11-18T03:56:18;1.80;;;1.60;;
56824;SDS011;42705;50.326;18.772;2023-11-18T04:01:40;3.50;;;2.20;;
56824;SDS011;42705;50.326;18.772;2023-11-18T04:07:02;2.50;;;2.10;;
56824;SDS011;42705;50.326;18.772;2023-11-18T04:12:24;2.60;;;2.30;;
56824;SDS011;42705;50.326;18.772;2023-11-18T04:17:48;3.20;;;2.60;;
56824;SDS011;42705;50.326;18.772;2023-11-18T04:23:10;2.50;;;2.30;;
56824;SDS011;42705;50.326;18.772;2023-11-18T04:28:33;2.30;;;2.10;;
56824;SDS011;42705;50.326;18.772;2023-11-18T04:33:56;3.60;;;3.20;;
56824;SDS011;42705;50.326;18.772;2023-11-18T04:39:19;3.40;;;3.00;;
56824;SDS011;42705;50.326;18.772;2023-11-18T04:44:44;4.10;;;3.70;;
56824;SDS011;42705;50.326;18.772;2023-11-18T04:50:06;3.90;;;3.50;;
56824;SDS011;42705;50.326;18.772;2023-11-18T04:55:30;3.80;;;3.40;;
56824;SDS011;42705;50.326;18.772;2023-11-18T05:00:52;4.20;;;3.80;;
56824;SDS011;42705;50.326;18.772;2023-11-18T05:06:14;4.60;;;4.10;;
56824;SDS011;42705;50.326;18.772;2023-11-18T05:11:36;3.60;;;3.30;;
56824;SDS011;42705;50.326;18.772;2023-11-18T05:16:58;4.10;;;3.40;;
56824;SDS011;42705;50.326;18.772;2023-11-18T05:22:20;3.80;;;3.40;;
56824;SDS011;42705;50.326;18.772;2023-11-18T05:27:42;3.10;;;2.20;;
56824;SDS011;42705;50.326;18.772;2023-11-18T05:33:05;1.30;;;0.90;;
56824;SDS011;42705;50.326;18.772;2023-11-18T05:38:27;1.00;;;0.60;;
56824;SDS011;42705;50.326;18.772;2023-11-18T05:43:53;0.70;;;0.40;;
56824;SDS011;42705;50.326;18.772;2023-11-18T05:49:19;0.80;;;0.60;;
56824;SDS011;42705;50.326;18.772;2023-11-18T05:54:44;1.30;;;0.80;;
56824;SDS011;42705;50.326;18.772;2023-11-18T06:00:06;1.80;;;1.30;;
56824;SDS011;42705;50.326;18.772;2023-11-18T06:05:34;1.80;;;1.00;;
56824;SDS011;42705;50.326;18.772;2023-11-18T06:10:56;2.40;;;1.60;;
56824;SDS011;42705;50.326;18.772;2023-11-18T06:16:20;2.70;;;2.20;;
56824;SDS011;42705;50.326;18.772;2023-11-18T06:21:43;5.10;;;2.70;;
56824;SDS011;42705;50.326;18.772;2023-11-18T06:27:05;3.10;;;2.40;;
56824;SDS011;42705;50.326;18.772;2023-11-18T06:32:28;4.20;;;3.20;;
56824;SDS011;42705;50.326;18.772;2023-11-18T06:37:52;6.00;;;4.00;;
56824;SDS011;42705;50.326;18.772;2023-11-18T06:43:14;8.00;;;5.00;;
56824;SDS011;42705;50.326;18.772;2023-11-18T06:48:37;8.70;;;5.40;;
56824;SDS011;42705;50.326;18.772;2023-11-18T06:53:59;9.30;;;5.30;;
56824;SDS011;42705;50.326;18.772;2023-11-18T06:59:21;7.90;;;5.30;;
56824;SDS011;42705;50.326;18.772;2023-11-18T07:04:43;13.50;;;7.50;;
56824;SDS011;42705;50.326;18.772;2023-11-18T07:10:05;14.70;;;8.30;;
56824;SDS011;42705;50.326;18.772;2023-11-18T07:15:28;18.20;;;9.40;;
56824;SDS011;42705;50.326;18.772;2023-11-18T07:20:50;20.70;;;10.90;;
56824;SDS011;42705;50.326;18.772;2023-11-18T07:26:15;22.10;;;10.40;;
56824;SDS011;42705;50.326;18.772;2023-11-18T07:31:37;20.30;;;11.00;;
56824;SDS011;42705;50.326;18.772;2023-11-18T07:36:59;19.00;;;10.60;;
56824;SDS011;42705;50.326;18.772;2023-11-18T07:42:23;19.70;;;10.00;;
56824;SDS011;42705;50.326;18.772;2023-11-18T07:47:47;24.10;;;12.00;;
56824;SDS011;42705;50.326;18.772;2023-11-18T07:53:09;19.90;;;10.70;;
56824;SDS011;42705;50.326;18.772;2023-11-18T07:58:31;19.00;;;8.80;;
56824;SDS011;42705;50.326;18.772;2023-11-18T08:03:54;19.00;;;9.80;;
56824;SDS011;42705;50.326;18.772;2023-11-18T08:09:16;18.50;;;9.60;;
56824;SDS011;42705;50.326;18.772;2023-11-18T08:14:44;14.60;;;8.30;;
56824;SDS011;42705;50.326;18.772;2023-11-18T08:20:06;15.10;;;7.90;;
56824;SDS011;42705;50.326;18.772;2023-11-18T08:25:35;13.70;;;8.80;;
56824;SDS011;42705;50.326;18.772;2023-11-18T08:30:58;12.70;;;7.30;;
56824;SDS011;42705;50.326;18.772;2023-11-18T08:36:21;16.90;;;8.30;;
56824;SDS011;42705;50.326;18.772;2023-11-18T08:41:48;17.00;;;8.30;;
56824;SDS011;42705;50.326;18.772;2023-11-18T08:47:12;13.30;;;7.50;;
56824;SDS011;42705;50.326;18.772;2023-11-18T08:52:34;12.20;;;7.60;;
56824;SDS011;42705;50.326;18.772;2023-11-18T08:57:58;11.20;;;6.30;;
56824;SDS011;42705;50.326;18.772;2023-11-18T09:03:21;8.60;;;5.30;;
56824;SDS011;42705;50.326;18.772;2023-11-18T09:08:49;7.60;;;4.60;;
56824;SDS011;42705;50.326;18.772;2023-11-18T09:14:14;6.30;;;4.30;;
56824;SDS011;42705;50.326;18.772;2023-11-18T09:19:36;7.00;;;4.00;;
56824;SDS011;42705;50.326;18.772;2023-11-18T09:24:58;6.00;;;3.40;;
56824;SDS011;42705;50.326;18.772;2023-11-18T09:30:21;6.50;;;4.40;;
56824;SDS011;42705;50.326;18.772;2023-11-18T09:35:47;5.10;;;3.80;;
56824;SDS011;42705;50.326;18.772;2023-11-18T09:41:09;6.30;;;4.70;;
56824;SDS011;42705;50.326;18.772;2023-11-18T09:46:35;11.40;;;5.40;;
56824;SDS011;42705;50.326;18.772;2023-11-18T09:52:03;10.60;;;5.70;;
56824;SDS011;42705;50.326;18.772;2023-11-18T10:02:48;9.20;;;5.20;;
56824;SDS011;42705;50.326;18.772;2023-11-18T10:08:12;8.30;;;5.30;;
56824;SDS011;42705;50.326;18.772;2023-11-18T10:13:37;9.60;;;5.40;;
56824;SDS011;42705;50.326;18.772;2023-11-18T10:19:02;9.60;;;5.90;;
56824;SDS011;42705;50.326;18.772;2023-11-18T10:24:41;11.20;;;5.60;;
56824;SDS011;42705;50.326;18.772;2023-11-18T10:30:06;8.20;;;5.10;;
56824;SDS011;42705;50.326;18.772;2023-11-18T10:35:40;9.90;;;5.30;;
56824;SDS011;42705;50.326;18.772;2023-11-18T10:41:14;14.30;;;6.60;;
56824;SDS011;42705;50.326;18.772;2023-11-18T10:46:38;8.40;;;4.40;;
56824;SDS011;42705;50.326;18.772;2023-11-18T10:52:00;7.00;;;4.50;;
56824;SDS011;42705;50.326;18.772;2023-11-18T10:57:25;5.70;;;3.70;;
56824;SDS011;42705;50.326;18.772;2023-11-18T11:02:47;8.70;;;4.90;;
56824;SDS011;42705;50.326;18.772;2023-11-18T11:08:13;6.70;;;4.50;;
56824;SDS011;42705;50.326;18.772;2023-11-18T11:13:37;6.50;;;4.60;;
56824;SDS011;42705;50.326;18.772;2023-11-18T11:19:01;7.30;;;4.90;;
56824;SDS011;42705;50.326;18.772;2023-11-18T11:30:09;6.50;;;4.40;;
56824;SDS011;42705;50.326;18.772;2023-11-18T11:35:41;8.90;;;5.80;;
56824;SDS011;42705;50.326;18.772;2023-11-18T11:41:08;8.40;;;5.90;;
56824;SDS011;42705;50.326;18.772;2023-11-18T11:46:31;13.60;;;6.90;;
56824;SDS011;42705;50.326;18.772;2023-11-18T11:52:04;7.30;;;4.70;;
56824;SDS011;42705;50.326;18.772;2023-11-18T11:57:32;9.90;;;5.70;;
56824;SDS011;42705;50.326;18.772;2023-11-18T12:02:57;6.80;;;5.30;;
56824;SDS011;42705;50.326;18.772;2023-11-18T12:08:26;7.30;;;5.60;;
56824;SDS011;42705;50.326;18.772;2023-11-18T12:14:21;7.60;;;5.70;;
56824;SDS011;42705;50.326;18.772;2023-11-18T12:19:43;8.30;;;5.90;;
56824;SDS011;42705;50.326;18.772;2023-11-18T12:30:39;11.40;;;7.20;;
56824;SDS011;42705;50.326;18.772;2023-11-18T12:42:01;8.70;;;6.30;;
56824;SDS011;42705;50.326;18.772;2023-11-18T12:47:28;9.70;;;6.50;;
56824;SDS011;42705;50.326;18.772;2023-11-18T12:52:53;11.50;;;7.30;;
56824;SDS011;42705;50.326;18.772;2023-11-18T12:58:16;10.70;;;7.10;;
56824;SDS011;42705;50.326;18.772;2023-11-18T13:03:42;11.00;;;7.20;;
56824;SDS011;42705;50.326;18.772;2023-11-18T13:09:06;14.70;;;9.50;;
56824;SDS011;42705;50.326;18.772;2023-11-18T13:14:31;12.40;;;7.90;;
56824;SDS011;42705;50.326;18.772;2023-11-18T13:19:57;10.10;;;7.40;;
56824;SDS011;42705;50.326;18.772;2023-11-18T13:25:35;10.70;;;7.30;;
56824;SDS011;42705;50.326;18.772;2023-11-18T13:31:00;12.70;;;8.00;;
56824;SDS011;42705;50.326;18.772;2023-11-18T13:36:23;12.60;;;7.70;;
56824;SDS011;42705;50.326;18.772;2023-11-18T13:41:48;13.30;;;8.30;;
56824;SDS011;42705;50.326;18.772;2023-11-18T13:47:11;11.50;;;8.10;;
56824;SDS011;42705;50.326;18.772;2023-11-18T13:52:36;15.60;;;9.30;;
56824;SDS011;42705;50.326;18.772;2023-11-18T13:58:00;13.20;;;8.10;;
56824;SDS011;42705;50.326;18.772;2023-11-18T14:03:22;14.10;;;7.70;;
56824;SDS011;42705;50.326;18.772;2023-11-18T14:08:45;11.70;;;7.90;;
56824;SDS011;42705;50.326;18.772;2023-11-18T14:14:07;12.60;;;8.40;;
56824;SDS011;42705;50.326;18.772;2023-11-18T14:19:30;12.20;;;8.70;;
56824;SDS011;42705;50.326;18.772;2023-11-18T14:24:52;17.00;;;10.50;;
56824;SDS011;42705;50.326;18.772;2023-11-18T14:30:15;14.90;;;9.60;;
56824;SDS011;42705;50.326;18.772;2023-11-18T14:35:38;13.60;;;9.10;;
56824;SDS011;42705;50.326;18.772;2023-11-18T14:41:03;15.50;;;10.40;;
56824;SDS011;42705;50.326;18.772;2023-11-18T14:51:49;14.30;;;9.50;;
56824;SDS011;42705;50.326;18.772;2023-11-18T14:57:10;18.50;;;9.90;;
56824;SDS011;42705;50.326;18.772;2023-11-18T15:02:32;15.00;;;8.90;;
56824;SDS011;42705;50.326;18.772;2023-11-18T15:07:56;16.00;;;9.50;;
56824;SDS011;42705;50.326;18.772;2023-11-18T15:13:20;15.80;;;9.40;;
56824;SDS011;42705;50.326;18.772;2023-11-18T15:18:42;16.40;;;9.90;;
56824;SDS011;42705;50.326;18.772;2023-11-18T15:24:05;15.30;;;9.00;;
56824;SDS011;42705;50.326;18.772;2023-11-18T15:29:28;14.10;;;8.80;;
56824;SDS011;42705;50.326;18.772;2023-11-18T15:34:55;17.70;;;9.40;;
56824;SDS011;42705;50.326;18.772;2023-11-18T15:40:19;13.30;;;8.70;;
56824;SDS011;42705;50.326;18.772;2023-11-18T15:45:46;13.30;;;8.20;;
56824;SDS011;42705;50.326;18.772;2023-11-18T15:51:09;18.20;;;9.70;;
56824;SDS011;42705;50.326;18.772;2023-11-18T15:56:35;16.70;;;10.20;;
56824;SDS011;42705;50.326;18.772;2023-11-18T16:01:57;23.00;;;11.50;;
56824;SDS011;42705;50.326;18.772;2023-11-18T16:07:19;14.70;;;8.80;;
56824;SDS011;42705;50.326;18.772;2023-11-18T16:12:41;17.90;;;10.20;;
56824;SDS011;42705;50.326;18.772;2023-11-18T16:18:03;17.60;;;11.10;;
56824;SDS011;42705;50.326;18.772;2023-11-18T16:23:25;21.60;;;12.60;;
56824;SDS011;42705;50.326;18.772;2023-11-18T16:28:51;19.00;;;11.30;;
56824;SDS011;42705;50.326;18.772;2023-11-18T16:34:13;18.40;;;10.90;;
56824;SDS011;42705;50.326;18.772;2023-11-18T16:39:35;20.10;;;11.70;;
56824;SDS011;42705;50.326;18.772;2023-11-18T16:44:57;20.70;;;11.50;;
56824;SDS011;42705;50.326;18.772;2023-11-18T16:50:21;18.40;;;10.80;;
56824;SDS011;42705;50.326;18.772;2023-11-18T16:55:44;18.50;;;11.10;;
56824;SDS011;42705;50.326;18.772;2023-11-18T17:01:06;21.60;;;11.40;;
56824;SDS011;42705;50.326;18.772;2023-11-18T17:06:30;25.20;;;13.20;;
56824;SDS011;42705;50.326;18.772;2023-11-18T17:11:52;27.10;;;13.20;;
56824;SDS011;42705;50.326;18.772;2023-11-18T17:17:15;22.90;;;12.50;;
56824;SDS011;42705;50.326;18.772;2023-11-18T17:22:37;23.80;;;12.20;;
56824;SDS011;42705;50.326;18.772;2023-11-18T17:28:06;27.10;;;13.90;;
56824;SDS011;42705;50.326;18.772;2023-11-18T17:33:28;24.10;;;13.60;;
56824;SDS011;42705;50.326;18.772;2023-11-18T17:38:50;25.80;;;13.90;;
56824;SDS011;42705;50.326;18.772;2023-11-18T17:44:13;26.20;;;13.90;;
56824;SDS011;42705;50.326;18.772;2023-11-18T17:49:37;24.50;;;13.50;;
56824;SDS011;42705;50.326;18.772;2023-11-18T17:55:00;30.00;;;15.30;;
56824;SDS011;42705;50.326;18.772;2023-11-18T18:00:23;23.10;;;13.10;;
56824;SDS011;42705;50.326;18.772;2023-11-18T18:05:45;22.50;;;11.20;;
56824;SDS011;42705;50.326;18.772;2023-11-18T18:11:08;20.60;;;11.70;;
56824;SDS011;42705;50.326;18.772;2023-11-18T18:16:30;24.80;;;13.30;;
56824;SDS011;42705;50.326;18.772;2023-11-18T18:21:52;23.60;;;12.70;;
56824;SDS011;42705;50.326;18.772;2023-11-18T18:27:14;22.50;;;13.30;;
56824;SDS011;42705;50.326;18.772;2023-11-18T18:32:36;21.40;;;12.60;;
56824;SDS011;42705;50.326;18.772;2023-11-18T18:37:58;26.80;;;13.90;;
56824;SDS011;42705;50.326;18.772;2023-11-18T18:43:20;40.80;;;17.70;;
56824;SDS011;42705;50.326;18.772;2023-11-18T18:48:43;30.60;;;14.90;;
56824;SDS011;42705;50.326;18.772;2023-11-18T18:54:05;26.30;;;14.10;;
56824;SDS011;42705;50.326;18.772;2023-11-18T18:59:27;24.80;;;13.80;;
56824;SDS011;42705;50.326;18.772;2023-11-18T19:04:49;30.20;;;14.80;;
56824;SDS011;42705;50.326;18.772;2023-11-18T19:10:11;31.90;;;15.50;;
56824;SDS011;42705;50.326;18.772;2023-11-18T19:15:33;34.80;;;16.30;;
56824;SDS011;42705;50.326;18.772;2023-11-18T19:20:56;32.90;;;16.80;;
56824;SDS011;42705;50.326;18.772;2023-11-18T19:26:19;22.10;;;12.80;;
56824;SDS011;42705;50.326;18.772;2023-11-18T19:31:41;22.10;;;13.10;;
56824;SDS011;42705;50.326;18.772;2023-11-18T19:37:04;23.80;;;12.70;;
56824;SDS011;42705;50.326;18.772;2023-11-18T19:42:26;28.10;;;16.00;;
56824;SDS011;42705;50.326;18.772;2023-11-18T19:47:50;32.60;;;16.10;;
56824;SDS011;42705;50.326;18.772;2023-11-18T19:53:12;45.60;;;22.20;;
56824;SDS011;42705;50.326;18.772;2023-11-18T19:58:34;19.30;;;12.00;;
56824;SDS011;42705;50.326;18.772;2023-11-18T20:03:56;15.80;;;9.20;;
56824;SDS011;42705;50.326;18.772;2023-11-18T20:09:18;16.60;;;9.60;;
56824;SDS011;42705;50.326;18.772;2023-11-18T20:14:40;19.70;;;11.50;;
56824;SDS011;42705;50.326;18.772;2023-11-18T20:20:03;20.70;;;11.90;;
56824;SDS011;42705;50.326;18.772;2023-11-18T20:25:31;19.80;;;10.90;;
56824;SDS011;42705;50.326;18.772;2023-11-18T20:30:53;19.30;;;10.90;;
56824;SDS011;42705;50.326;18.772;2023-11-18T20:36:15;20.50;;;11.20;;
56824;SDS011;42705;50.326;18.772;2023-11-18T20:41:38;21.20;;;11.40;;
56824;SDS011;42705;50.326;18.772;2023-11-18T20:46:59;18.60;;;10.80;;
56824;SDS011;42705;50.326;18.772;2023-11-18T20:52:22;31.80;;;14.70;;
56824;SDS011;42705;50.326;18.772;2023-11-18T20:57:44;28.60;;;14.00;;
56824;SDS011;42705;50.326;18.772;2023-11-18T21:03:06;32.70;;;15.30;;
56824;SDS011;42705;50.326;18.772;2023-11-18T21:08:28;40.80;;;19.60;;
56824;SDS011;42705;50.326;18.772;2023-11-18T21:13:50;38.60;;;19.70;;
56824;SDS011;42705;50.326;18.772;2023-11-18T21:19:12;38.50;;;17.40;;
56824;SDS011;42705;50.326;18.772;2023-11-18T21:24:34;33.50;;;15.70;;
56824;SDS011;42705;50.326;18.772;2023-11-18T21:29:56;39.70;;;18.90;;
56824;SDS011;42705;50.326;18.772;2023-11-18T21:35:18;34.70;;;17.40;;
56824;SDS011;42705;50.326;18.772;2023-11-18T21:40:41;28.60;;;15.70;;
56824;SDS011;42705;50.326;18.772;2023-11-18T21:46:03;25.20;;;13.80;;
56824;SDS011;42705;50.326;18.772;2023-11-18T21:51:25;23.60;;;12.90;;
56824;SDS011;42705;50.326;18.772;2023-11-18T21:56:47;25.70;;;13.10;;
56824;SDS011;42705;50.326;18.772;2023-11-18T22:02:09;25.10;;;15.30;;
56824;SDS011;42705;50.326;18.772;2023-11-18T22:07:33;26.10;;;15.50;;
56824;SDS011;42705;50.326;18.772;2023-11-18T22:12:55;30.50;;;16.40;;
56824;SDS011;42705;50.326;18.772;2023-11-18T22:23:40;23.30;;;12.60;;
56824;SDS011;42705;50.326;18.772;2023-11-18T22:29:04;41.50;;;20.00;;
56824;SDS011;42705;50.326;18.772;2023-11-18T22:34:26;51.10;;;24.40;;
56824;SDS011;42705;50.326;18.772;2023-11-18T22:39:50;37.50;;;18.80;;
56824;SDS011;42705;50.326;18.772;2023-11-18T22:45:18;38.00;;;19.80;;
56824;SDS011;42705;50.326;18.772;2023-11-18T22:50:41;37.40;;;19.50;;
56824;SDS011;42705;50.326;18.772;2023-11-18T22:56:03;39.90;;;20.20;;
56824;SDS011;42705;50.326;18.772;2023-11-18T23:01:27;49.60;;;23.90;;
56824;SDS011;42705;50.326;18.772;2023-11-18T23:06:50;50.70;;;24.50;;
56824;SDS011;42705;50.326;18.772;2023-11-18T23:12:16;60.60;;;26.60;;
56824;SDS011;42705;50.326;18.772;2023-11-18T23:17:38;40.40;;;21.80;;
56824;SDS011;42705;50.326;18.772;2023-11-18T23:23:00;49.90;;;23.90;;
56824;SDS011;42705;50.326;18.772;2023-11-18T23:28:22;92.80;;;39.80;;
56824;SDS011;42705;50.326;18.772;2023-11-18T23:33:44;91.60;;;38.20;;
56824;SDS011;42705;50.326;18.772;2023-11-18T23:39:06;81.40;;;33.40;;
56824;SDS011;42705;50.326;18.772;2023-11-18T23:44:28;107.00;;;44.80;;
56824;SDS011;42705;50.326;18.772;2023-11-18T23:49:49;117.60;;;49.60;;
56824;SDS011;42705;50.326;18.772;2023-11-18T23:55:11;103.60;;;43.80;;
